sensor_id;sensor_type;location;lat;lon;timestamp;pressure;altitude;pressure_sealevel;temperature;humidity
35704;BME280;21820;51.112;13.762;2023-05-18T00:01:32;100304.44;;;22.15;45.44
35704;BME280;21820;51.112;13.762;2023-05-18T00:03:57;100304.44;;;22.15;45.15
35704;BME280;21820;51.112;13.762;2023-05-18T00:06:22;100311.34;;;22.16;45.04
35704;BME280;21820;51.112;13.762;2023-05-18T00:08:50;100298.97;;;22.18;45.17
35704;BME280;21820;51.112;13.762;2023-05-18T00:11:15;100297.03;;;22.20;45.09
35704;BME280;21820;51.112;13.762;2023-05-18T00:13:41;100308.34;;;22.20;45.06
35704;BME280;21820;51.112;13.762;2023-05-18T00:16:06;100313.00;;;22.17;45.10
35704;BME280;21820;51.112;13.762;2023-05-18T00:18:31;100313.97;;;22.16;45.67
35704;BME280;21820;51.112;13.762;2023-05-18T00:20:58;100310.50;;;22.15;45.24
35704;BME280;21820;51.112;13.762;2023-05-18T00:23:26;100317.41;;;22.16;45.56
35704;BME280;21820;51.112;13.762;2023-05-18T00:25:54;100298.06;;;22.08;45.48
35704;BME280;21820;51.112;13.762;2023-05-18T00:28:19;100321.44;;;22.20;45.15
35704;BME280;21820;51.112;13.762;2023-05-18T00:30:44;100320.59;;;22.20;45.17
35704;BME280;21820;51.112;13.762;2023-05-18T00:33:10;100318.22;;;22.17;45.06
35704;BME280;21820;51.112;13.762;2023-05-18T00:35:35;100320.84;;;22.17;45.54
35704;BME280;21820;51.112;13.762;2023-05-18T00:38:00;100323.22;;;22.20;45.35
35704;BME280;21820;51.112;13.762;2023-05-18T00:40:26;100311.09;;;22.19;45.43
35704;BME280;21820;51.112;13.762;2023-05-18T00:42:52;100324.31;;;22.17;44.78
35704;BME280;21820;51.112;13.762;2023-05-18T00:45:17;100323.22;;;22.20;45.39
35704;BME280;21820;51.112;13.762;2023-05-18T00:47:42;100324.91;;;22.21;44.81
35704;BME280;21820;51.112;13.762;2023-05-18T00:50:08;100326.81;;;22.19;45.52
35704;BME280;21820;51.112;13.762;2023-05-18T00:52:33;100329.41;;;22.19;44.63
35704;BME280;21820;51.112;13.762;2023-05-18T00:54:59;100324.06;;;22.20;45.11
35704;BME280;21820;51.112;13.762;2023-05-18T00:57:24;100331.31;;;22.17;44.93
35704;BME280;21820;51.112;13.762;2023-05-18T00:59:50;100328.72;;;22.17;44.85
35704;BME280;21820;51.112;13.762;2023-05-18T01:02:15;100340.88;;;22.18;45.49
35704;BME280;21820;51.112;13.762;2023-05-18T01:04:41;100337.03;;;22.22;44.76
35704;BME280;21820;51.112;13.762;2023-05-18T01:07:07;100335.38;;;22.21;45.32
35704;BME280;21820;51.112;13.762;2023-05-18T01:09:32;100340.34;;;22.24;44.62
35704;BME280;21820;51.112;13.762;2023-05-18T01:12:17;100334.41;;;22.22;45.07
35704;BME280;21820;51.112;13.762;2023-05-18T01:14:51;100337.28;;;22.19;44.66
35704;BME280;21820;51.112;13.762;2023-05-18T01:20:03;100343.94;;;22.23;45.27
35704;BME280;21820;51.112;13.762;2023-05-18T01:25:17;100337.28;;;22.19;45.21
35704;BME280;21820;51.112;13.762;2023-05-18T01:27:43;100347.25;;;22.25;44.76
35704;BME280;21820;51.112;13.762;2023-05-18T01:30:11;100350.56;;;22.27;45.28
35704;BME280;21820;51.112;13.762;2023-05-18T01:32:38;100341.53;;;22.20;44.86
35704;BME280;21820;51.112;13.762;2023-05-18T01:35:03;100350.13;;;22.22;44.70
35704;BME280;21820;51.112;13.762;2023-05-18T01:37:29;100350.38;;;22.19;45.17
35704;BME280;21820;51.112;13.762;2023-05-18T01:39:54;100335.44;;;22.10;44.77
35704;BME280;21820;51.112;13.762;2023-05-18T01:42:20;100355.47;;;22.20;45.42
35704;BME280;21820;51.112;13.762;2023-05-18T01:44:49;100350.25;;;22.20;44.67
35704;BME280;21820;51.112;13.762;2023-05-18T01:47:17;100347.50;;;22.22;44.66
35704;BME280;21820;51.112;13.762;2023-05-18T01:50:25;100343.47;;;22.18;45.22
35704;BME280;21820;51.112;13.762;2023-05-18T01:55:11;100353.00;;;22.19;45.18
35704;BME280;21820;51.112;13.762;2023-05-18T01:57:38;100354.41;;;22.23;45.29
35704;BME280;21820;51.112;13.762;2023-05-18T02:00:05;100352.47;;;22.25;44.89
35704;BME280;21820;51.112;13.762;2023-05-18T02:02:34;100354.41;;;22.23;45.18
35704;BME280;21820;51.112;13.762;2023-05-18T02:04:59;100355.94;;;22.25;44.83
35704;BME280;21820;51.112;13.762;2023-05-18T02:07:24;100347.50;;;22.22;44.89
35704;BME280;21820;51.112;13.762;2023-05-18T02:09:49;100354.16;;;22.26;44.94
35704;BME280;21820;51.112;13.762;2023-05-18T02:12:15;100353.44;;;22.24;45.22
35704;BME280;21820;51.112;13.762;2023-05-18T02:14:40;100347.00;;;22.28;45.14
35704;BME280;21820;51.112;13.762;2023-05-18T02:17:05;100353.44;;;22.24;45.24
35704;BME280;21820;51.112;13.762;2023-05-18T02:19:31;100357.50;;;22.28;44.81
35704;BME280;21820;51.112;13.762;2023-05-18T02:21:56;100358.56;;;22.25;44.81
35704;BME280;21820;51.112;13.762;2023-05-18T02:24:22;100357.50;;;22.28;45.00
35704;BME280;21820;51.112;13.762;2023-05-18T02:26:48;100354.16;;;22.26;44.61
35704;BME280;21820;51.112;13.762;2023-05-18T02:29:14;100351.94;;;22.21;44.68
35704;BME280;21820;51.112;13.762;2023-05-18T02:31:39;100359.41;;;22.26;44.62
35704;BME280;21820;51.112;13.762;2023-05-18T02:34:05;100365.84;;;22.22;45.16
35704;BME280;21820;51.112;13.762;2023-05-18T02:36:30;100370.00;;;22.24;45.12
35704;BME280;21820;51.112;13.762;2023-05-18T02:39:06;100369.63;;;22.29;44.49
35704;BME280;21820;51.112;13.762;2023-05-18T02:41:32;100365.47;;;22.26;44.83
35704;BME280;21820;51.112;13.762;2023-05-18T02:43:57;100376.50;;;22.30;44.83
35704;BME280;21820;51.112;13.762;2023-05-18T02:46:22;100370.72;;;22.26;44.79
35704;BME280;21820;51.112;13.762;2023-05-18T02:48:47;100378.00;;;22.23;44.66
35704;BME280;21820;51.112;13.762;2023-05-18T02:51:13;100376.06;;;22.25;45.23
35704;BME280;21820;51.112;13.762;2023-05-18T02:53:38;100382.00;;;22.27;44.41
35704;BME280;21820;51.112;13.762;2023-05-18T02:56:04;100374.84;;;22.29;44.63
35704;BME280;21820;51.112;13.762;2023-05-18T02:58:29;100360.38;;;22.14;44.43
35704;BME280;21820;51.112;13.762;2023-05-18T03:00:55;100369.88;;;22.26;44.38
35704;BME280;21820;51.112;13.762;2023-05-18T03:03:20;100381.28;;;22.25;44.51
35704;BME280;21820;51.112;13.762;2023-05-18T03:05:47;100377.03;;;22.24;44.73
35704;BME280;21820;51.112;13.762;2023-05-18T03:08:12;100373.44;;;22.25;45.11
35704;BME280;21820;51.112;13.762;2023-05-18T03:10:38;100384.88;;;22.24;45.18
35704;BME280;21820;51.112;13.762;2023-05-18T03:13:03;100387.63;;;22.22;45.17
35704;BME280;21820;51.112;13.762;2023-05-18T03:15:29;100383.22;;;22.23;44.45
35704;BME280;21820;51.112;13.762;2023-05-18T03:17:56;100383.91;;;22.25;44.96
35704;BME280;21820;51.112;13.762;2023-05-18T03:20:24;100384.50;;;22.28;45.10
35704;BME280;21820;51.112;13.762;2023-05-18T03:22:50;100378.69;;;22.25;45.15
35704;BME280;21820;51.112;13.762;2023-05-18T03:25:15;100389.06;;;22.26;44.91
35704;BME280;21820;51.112;13.762;2023-05-18T03:27:41;100395.56;;;22.32;44.68
35704;BME280;21820;51.112;13.762;2023-05-18T03:30:06;100387.00;;;22.30;44.56
35704;BME280;21820;51.112;13.762;2023-05-18T03:32:32;100397.72;;;22.27;44.53
35704;BME280;21820;51.112;13.762;2023-05-18T03:34:58;100399.41;;;22.28;44.82
35704;BME280;21820;51.112;13.762;2023-05-18T03:37:25;100383.22;;;22.23;44.20
35704;BME280;21820;51.112;13.762;2023-05-18T03:39:50;100394.16;;;22.28;44.53
35704;BME280;21820;51.112;13.762;2023-05-18T03:42:15;100398.06;;;22.33;44.89
35704;BME280;21820;51.112;13.762;2023-05-18T03:44:41;100405.59;;;22.27;44.37
35704;BME280;21820;51.112;13.762;2023-05-18T03:47:09;100404.53;;;22.29;44.97
35704;BME280;21820;51.112;13.762;2023-05-18T03:49:35;100399.41;;;22.28;44.81
35704;BME280;21820;51.112;13.762;2023-05-18T03:52:02;100390.88;;;22.15;44.41
35704;BME280;21820;51.112;13.762;2023-05-18T03:54:27;100410.56;;;22.30;44.99
35704;BME280;21820;51.112;13.762;2023-05-18T03:56:52;100395.47;;;22.22;44.66
35704;BME280;21820;51.112;13.762;2023-05-18T03:59:17;100411.53;;;22.29;44.88
35704;BME280;21820;51.112;13.762;2023-05-18T04:01:43;100408.91;;;22.29;44.36
35704;BME280;21820;51.112;13.762;2023-05-18T04:04:08;100402.03;;;22.28;44.90
35704;BME280;21820;51.112;13.762;2023-05-18T04:06:33;100411.41;;;22.30;44.43
35704;BME280;21820;51.112;13.762;2023-05-18T04:08:59;100403.34;;;22.22;44.44
35704;BME280;21820;51.112;13.762;2023-05-18T04:11:28;100414.88;;;22.31;44.58
35704;BME280;21820;51.112;13.762;2023-05-18T04:13:53;100412.97;;;22.33;44.50
35704;BME280;21820;51.112;13.762;2023-05-18T04:16:19;100420.09;;;22.31;44.38
35704;BME280;21820;51.112;13.762;2023-05-18T04:18:45;100417.63;;;22.29;45.01
35704;BME280;21820;51.112;13.762;2023-05-18T04:21:11;100426.19;;;22.31;44.88
35704;BME280;21820;51.112;13.762;2023-05-18T04:23:36;100413.09;;;22.20;44.62
35704;BME280;21820;51.112;13.762;2023-05-18T04:26:03;100426.66;;;22.25;44.55
35704;BME280;21820;51.112;13.762;2023-05-18T04:28:28;100429.38;;;22.35;44.44
35704;BME280;21820;51.112;13.762;2023-05-18T04:30:54;100433.22;;;22.31;44.92
35704;BME280;21820;51.112;13.762;2023-05-18T04:33:19;100426.28;;;22.30;44.82
35704;BME280;21820;51.112;13.762;2023-05-18T04:35:44;100410.50;;;22.20;44.83
35704;BME280;21820;51.112;13.762;2023-05-18T04:38:10;100425.09;;;22.34;44.19
35704;BME280;21820;51.112;13.762;2023-05-18T04:40:35;100405.63;;;22.16;44.96
35704;BME280;21820;51.112;13.762;2023-05-18T04:43:02;100422.00;;;22.29;44.43
35704;BME280;21820;51.112;13.762;2023-05-18T04:45:28;100430.59;;;22.31;44.78
35704;BME280;21820;51.112;13.762;2023-05-18T04:47:53;100424.13;;;22.35;44.63
35704;BME280;21820;51.112;13.762;2023-05-18T04:50:19;100428.91;;;22.30;44.86
35704;BME280;21820;51.112;13.762;2023-05-18T04:52:46;100430.34;;;22.34;44.32
35704;BME280;21820;51.112;13.762;2023-05-18T04:55:18;100429.88;;;22.29;44.69
35704;BME280;21820;51.112;13.762;2023-05-18T04:57:50;100432.25;;;22.32;44.18
35704;BME280;21820;51.112;13.762;2023-05-18T05:00:18;100435.81;;;22.31;44.57
35704;BME280;21820;51.112;13.762;2023-05-18T05:02:43;100440.94;;;22.32;44.53
35704;BME280;21820;51.112;13.762;2023-05-18T05:05:08;100443.69;;;22.31;44.64
35704;BME280;21820;51.112;13.762;2023-05-18T05:07:33;100436.53;;;22.33;44.51
35704;BME280;21820;51.112;13.762;2023-05-18T05:09:59;100439.38;;;22.30;44.50
35704;BME280;21820;51.112;13.762;2023-05-18T05:12:24;100441.78;;;22.33;44.66
35704;BME280;21820;51.112;13.762;2023-05-18T05:14:49;100442.13;;;22.28;44.79
35704;BME280;21820;51.112;13.762;2023-05-18T05:17:15;100438.91;;;22.36;44.84
35704;BME280;21820;51.112;13.762;2023-05-18T05:19:40;100448.09;;;22.30;44.31
35704;BME280;21820;51.112;13.762;2023-05-18T05:22:06;100448.94;;;22.31;44.34
35704;BME280;21820;51.112;13.762;2023-05-18T05:24:31;100455.56;;;22.35;44.02
35704;BME280;21820;51.112;13.762;2023-05-18T05:26:56;100456.53;;;22.34;44.72
35704;BME280;21820;51.112;13.762;2023-05-18T05:29:22;100424.44;;;22.21;44.73
35704;BME280;21820;51.112;13.762;2023-05-18T05:31:47;100450.31;;;22.35;44.66
35704;BME280;21820;51.112;13.762;2023-05-18T05:34:12;100449.63;;;22.33;44.75
35704;BME280;21820;51.112;13.762;2023-05-18T05:36:37;100444.41;;;22.33;44.23
35704;BME280;21820;51.112;13.762;2023-05-18T05:39:03;100449.06;;;22.29;45.00
35704;BME280;21820;51.112;13.762;2023-05-18T05:41:29;100442.72;;;22.32;44.09
35704;BME280;21820;51.112;13.762;2023-05-18T05:43:54;100452.94;;;22.35;44.39
35704;BME280;21820;51.112;13.762;2023-05-18T05:46:20;100450.78;;;22.40;44.62
35704;BME280;21820;51.112;13.762;2023-05-18T05:48:46;100447.84;;;22.33;44.70
35704;BME280;21820;51.112;13.762;2023-05-18T05:51:11;100452.47;;;22.30;44.70
35704;BME280;21820;51.112;13.762;2023-05-18T05:53:36;100450.69;;;22.30;44.64
35704;BME280;21820;51.112;13.762;2023-05-18T05:56:01;100448.47;;;22.26;44.70
35704;BME280;21820;51.112;13.762;2023-05-18T05:58:27;100454.41;;;22.28;44.86
35704;BME280;21820;51.112;13.762;2023-05-18T06:00:52;100454.88;;;22.33;44.17
35704;BME280;21820;51.112;13.762;2023-05-18T06:03:17;100437.97;;;22.26;44.70
35704;BME280;21820;51.112;13.762;2023-05-18T06:05:42;100456.53;;;22.34;44.76
35704;BME280;21820;51.112;13.762;2023-05-18T06:08:08;100461.78;;;22.34;44.27
35704;BME280;21820;51.112;13.762;2023-05-18T06:10:33;100456.53;;;22.34;44.60
35704;BME280;21820;51.112;13.762;2023-05-18T06:12:58;100443.47;;;22.23;44.25
35704;BME280;21820;51.112;13.762;2023-05-18T06:15:23;100460.47;;;22.28;44.64
35704;BME280;21820;51.112;13.762;2023-05-18T06:17:49;100460.59;;;22.27;45.00
35704;BME280;21820;51.112;13.762;2023-05-18T06:20:14;100460.13;;;22.33;44.62
35704;BME280;21820;51.112;13.762;2023-05-18T06:22:39;100456.78;;;22.31;44.87
35704;BME280;21820;51.112;13.762;2023-05-18T06:25:05;100468.66;;;22.35;44.24
35704;BME280;21820;51.112;13.762;2023-05-18T06:27:30;100466.16;;;22.33;44.64
35704;BME280;21820;51.112;13.762;2023-05-18T06:29:56;100475.59;;;22.36;44.71
35704;BME280;21820;51.112;13.762;2023-05-18T06:32:21;100475.72;;;22.34;44.27
35704;BME280;21820;51.112;13.762;2023-05-18T06:34:46;100475.59;;;22.36;44.51
35704;BME280;21820;51.112;13.762;2023-05-18T06:37:14;100475.00;;;22.32;44.17
35704;BME280;21820;51.112;13.762;2023-05-18T06:39:39;100459.41;;;22.20;44.60
35704;BME280;21820;51.112;13.762;2023-05-18T06:42:05;100477.50;;;22.34;44.52
35704;BME280;21820;51.112;13.762;2023-05-18T06:44:30;100486.06;;;22.36;44.54
35704;BME280;21820;51.112;13.762;2023-05-18T06:46:55;100495.84;;;22.34;44.60
35704;BME280;21820;51.112;13.762;2023-05-18T06:49:21;100498.31;;;22.35;44.10
35704;BME280;21820;51.112;13.762;2023-05-18T06:51:46;100497.13;;;22.39;44.65
35704;BME280;21820;51.112;13.762;2023-05-18T06:54:11;100495.38;;;22.29;44.53
35704;BME280;21820;51.112;13.762;2023-05-18T06:56:37;100494.53;;;22.28;44.38
35704;BME280;21820;51.112;13.762;2023-05-18T06:59:02;100493.94;;;22.25;44.62
35704;BME280;21820;51.112;13.762;2023-05-18T07:01:27;100506.44;;;22.32;44.18
35704;BME280;21820;51.112;13.762;2023-05-18T07:03:53;100500.34;;;22.32;44.21
35704;BME280;21820;51.112;13.762;2023-05-18T07:06:18;100498.56;;;22.32;44.30
35704;BME280;21820;51.112;13.762;2023-05-18T07:08:43;100503.44;;;22.37;44.56
35704;BME280;21820;51.112;13.762;2023-05-18T07:11:09;100494.06;;;22.34;44.32
35704;BME280;21820;51.112;13.762;2023-05-18T07:13:34;100499.41;;;22.33;44.48
35704;BME280;21820;51.112;13.762;2023-05-18T07:16:00;100487.25;;;22.32;44.33
35704;BME280;21820;51.112;13.762;2023-05-18T07:18:25;100493.22;;;22.34;44.74
35704;BME280;21820;51.112;13.762;2023-05-18T07:20:50;100492.97;;;22.37;44.64
35704;BME280;21820;51.112;13.762;2023-05-18T07:23:16;100500.94;;;22.35;44.39
35704;BME280;21820;51.112;13.762;2023-05-18T07:25:41;100498.94;;;22.28;44.35
35704;BME280;21820;51.112;13.762;2023-05-18T07:28:06;100494.53;;;22.28;44.93
35704;BME280;21820;51.112;13.762;2023-05-18T07:30:32;100485.84;;;22.28;44.76
35704;BME280;21820;51.112;13.762;2023-05-18T07:32:57;100491.56;;;22.33;44.66
35704;BME280;21820;51.112;13.762;2023-05-18T07:35:22;100494.19;;;22.33;44.12
35704;BME280;21820;51.112;13.762;2023-05-18T07:37:49;100488.22;;;22.31;44.20
35704;BME280;21820;51.112;13.762;2023-05-18T07:40:16;100485.59;;;22.31;44.43
35704;BME280;21820;51.112;13.762;2023-05-18T07:42:41;100486.19;;;22.34;44.23
35704;BME280;21820;51.112;13.762;2023-05-18T07:45:07;100492.97;;;22.37;44.55
35704;BME280;21820;51.112;13.762;2023-05-18T07:47:33;100489.63;;;22.35;44.10
35704;BME280;21820;51.112;13.762;2023-05-18T07:49:58;100496.78;;;22.33;44.83
35704;BME280;21820;51.112;13.762;2023-05-18T07:52:23;100488.69;;;22.36;43.97
35704;BME280;21820;51.112;13.762;2023-05-18T07:54:49;100496.53;;;22.36;44.75
35704;BME280;21820;51.112;13.762;2023-05-18T07:57:14;100472.97;;;22.25;44.65
35704;BME280;21820;51.112;13.762;2023-05-18T07:59:40;100496.53;;;22.36;44.57
35704;BME280;21820;51.112;13.762;2023-05-18T08:02:05;100497.47;;;22.35;44.31
35704;BME280;21820;51.112;13.762;2023-05-18T08:04:31;100485.59;;;22.31;44.43
35704;BME280;21820;51.112;13.762;2023-05-18T08:06:57;100481.28;;;22.30;44.53
35704;BME280;21820;51.112;13.762;2023-05-18T08:09:24;100489.41;;;22.38;44.50
35704;BME280;21820;51.112;13.762;2023-05-18T08:11:49;100472.97;;;22.25;44.00
35704;BME280;21820;51.112;13.762;2023-05-18T08:14:15;100498.19;;;22.37;44.54
35704;BME280;21820;51.112;13.762;2023-05-18T08:16:41;100491.31;;;22.36;43.93
35704;BME280;21820;51.112;13.762;2023-05-18T08:19:06;100501.78;;;22.36;44.57
35704;BME280;21820;51.112;13.762;2023-05-18T08:21:31;100488.44;;;22.39;43.90
35704;BME280;21820;51.112;13.762;2023-05-18T08:23:57;100480.81;;;22.36;44.30
35704;BME280;21820;51.112;13.762;2023-05-18T08:26:22;100479.16;;;22.35;44.32
35704;BME280;21820;51.112;13.762;2023-05-18T08:28:48;100483.69;;;22.33;44.35
35704;BME280;21820;51.112;13.762;2023-05-18T08:31:14;100485.81;;;22.39;44.14
35704;BME280;21820;51.112;13.762;2023-05-18T08:33:39;100483.31;;;22.37;43.98
35704;BME280;21820;51.112;13.762;2023-05-18T08:36:05;100482.47;;;22.37;44.14
35704;BME280;21820;51.112;13.762;2023-05-18T08:38:31;100472.84;;;22.37;44.41
35704;BME280;21820;51.112;13.762;2023-05-18T08:43:36;100477.38;;;22.35;44.44
35704;BME280;21820;51.112;13.762;2023-05-18T08:48:36;100482.47;;;22.37;44.40
35704;BME280;21820;51.112;13.762;2023-05-18T08:51:02;100483.44;;;22.36;43.97
35704;BME280;21820;51.112;13.762;2023-05-18T08:53:28;100480.00;;;22.35;43.90
35704;BME280;21820;51.112;13.762;2023-05-18T08:55:55;100481.88;;;22.33;44.02
35704;BME280;21820;51.112;13.762;2023-05-18T08:58:23;100472.97;;;22.36;44.44
35704;BME280;21820;51.112;13.762;2023-05-18T09:00:51;100475.34;;;22.39;44.32
35704;BME280;21820;51.112;13.762;2023-05-18T09:03:18;100474.03;;;22.33;44.51
35704;BME280;21820;51.112;13.762;2023-05-18T09:05:43;100474.63;;;22.37;44.01
35704;BME280;21820;51.112;13.762;2023-05-18T09:08:10;100458.19;;;22.35;43.94
35704;BME280;21820;51.112;13.762;2023-05-18T09:10:36;100467.47;;;22.39;44.09
35704;BME280;21820;51.112;13.762;2023-05-18T09:13:02;100470.59;;;22.33;44.25
35704;BME280;21820;51.112;13.762;2023-05-18T09:15:29;100467.00;;;22.34;43.79
35704;BME280;21820;51.112;13.762;2023-05-18T09:17:54;100468.91;;;22.32;44.21
35704;BME280;21820;51.112;13.762;2023-05-18T09:20:19;100461.53;;;22.37;44.51
35704;BME280;21820;51.112;13.762;2023-05-18T09:22:45;100468.44;;;22.38;44.23
35704;BME280;21820;51.112;13.762;2023-05-18T09:25:13;100454.50;;;22.37;44.46
35704;BME280;21820;51.112;13.762;2023-05-18T09:27:40;100466.28;;;22.43;43.83
35704;BME280;21820;51.112;13.762;2023-05-18T09:30:08;100459.38;;;22.42;44.21
35704;BME280;21820;51.112;13.762;2023-05-18T09:32:34;100463.88;;;22.40;44.04
35704;BME280;21820;51.112;13.762;2023-05-18T09:35:04;100457.84;;;22.39;44.00
35704;BME280;21820;51.112;13.762;2023-05-18T09:37:30;100445.81;;;22.37;44.06
35704;BME280;21820;51.112;13.762;2023-05-18T09:39:57;100456.03;;;22.40;43.83
35704;BME280;21820;51.112;13.762;2023-05-18T09:42:31;100451.03;;;22.37;44.08
35704;BME280;21820;51.112;13.762;2023-05-18T09:44:58;100454.63;;;22.36;44.10
35704;BME280;21820;51.112;13.762;2023-05-18T09:47:24;100452.22;;;22.44;43.87
35704;BME280;21820;51.112;13.762;2023-05-18T09:49:51;100449.84;;;22.41;43.81
35704;BME280;21820;51.112;13.762;2023-05-18T09:52:16;100448.16;;;22.40;44.61
35704;BME280;21820;51.112;13.762;2023-05-18T09:54:41;100453.78;;;22.35;44.55
35704;BME280;21820;51.112;13.762;2023-05-18T09:57:07;100452.72;;;22.38;44.54
35704;BME280;21820;51.112;13.762;2023-05-18T09:59:34;100456.03;;;22.40;44.13
35704;BME280;21820;51.112;13.762;2023-05-18T10:02:01;100451.16;;;22.35;44.19
35704;BME280;21820;51.112;13.762;2023-05-18T10:04:42;100427.75;;;22.23;44.52
35704;BME280;21820;51.112;13.762;2023-05-18T10:07:08;100451.03;;;22.37;44.54
35704;BME280;21820;51.112;13.762;2023-05-18T10:09:34;100422.28;;;22.26;44.09
35704;BME280;21820;51.112;13.762;2023-05-18T10:11:59;100449.97;;;22.39;44.15
35704;BME280;21820;51.112;13.762;2023-05-18T10:14:25;100452.72;;;22.38;43.84
35704;BME280;21820;51.112;13.762;2023-05-18T10:16:54;100442.34;;;22.36;44.48
35704;BME280;21820;51.112;13.762;2023-05-18T10:19:19;100448.03;;;22.41;43.80
35704;BME280;21820;51.112;13.762;2023-05-18T10:21:45;100448.88;;;22.42;44.44
35704;BME280;21820;51.112;13.762;2023-05-18T10:24:10;100440.91;;;22.43;44.10
35704;BME280;21820;51.112;13.762;2023-05-18T10:26:39;100445.41;;;22.41;43.81
35704;BME280;21820;51.112;13.762;2023-05-18T10:29:05;100438.41;;;22.42;44.19
35704;BME280;21820;51.112;13.762;2023-05-18T10:31:31;100438.78;;;22.37;44.14
35704;BME280;21820;51.112;13.762;2023-05-18T10:33:59;100432.31;;;22.41;44.32
35704;BME280;21820;51.112;13.762;2023-05-18T10:36:24;100430.53;;;22.42;44.44
35704;BME280;21820;51.112;13.762;2023-05-18T10:38:53;100428.75;;;22.42;43.93
35704;BME280;21820;51.112;13.762;2023-05-18T10:41:21;100430.91;;;22.37;44.15
35704;BME280;21820;51.112;13.762;2023-05-18T10:43:47;100414.38;;;22.37;43.70
35704;BME280;21820;51.112;13.762;2023-05-18T10:46:12;100426.53;;;22.38;43.84
35704;BME280;21820;51.112;13.762;2023-05-18T10:48:39;100421.84;;;22.41;43.77
35704;BME280;21820;51.112;13.762;2023-05-18T10:51:06;100421.03;;;22.41;44.14
35704;BME280;21820;51.112;13.762;2023-05-18T10:53:32;100422.69;;;22.42;43.78
35704;BME280;21820;51.112;13.762;2023-05-18T10:55:57;100423.38;;;22.44;44.07
35704;BME280;21820;51.112;13.762;2023-05-18T10:58:26;100418.66;;;22.38;43.91
35704;BME280;21820;51.112;13.762;2023-05-18T11:00:56;100421.03;;;22.41;44.32
35704;BME280;21820;51.112;13.762;2023-05-18T11:03:21;100422.69;;;22.42;43.88
35704;BME280;21820;51.112;13.762;2023-05-18T11:05:50;100394.97;;;22.28;44.22
35704;BME280;21820;51.112;13.762;2023-05-18T11:08:25;100412.44;;;22.39;44.30
35704;BME280;21820;51.112;13.762;2023-05-18T11:10:58;100413.66;;;22.35;44.38
35704;BME280;21820;51.112;13.762;2023-05-18T11:13:26;100402.94;;;22.38;43.71
35704;BME280;21820;51.112;13.762;2023-05-18T11:18:17;100405.22;;;22.31;44.42
35704;BME280;21820;51.112;13.762;2023-05-18T11:20:44;100411.50;;;22.40;43.97
35704;BME280;21820;51.112;13.762;2023-05-18T11:23:09;100408.50;;;22.44;44.07
35704;BME280;21820;51.112;13.762;2023-05-18T11:25:37;100408.63;;;22.43;44.00
35704;BME280;21820;51.112;13.762;2023-05-18T11:28:04;100407.47;;;22.36;44.44
35704;BME280;21820;51.112;13.762;2023-05-18T11:30:43;100385.94;;;22.32;43.78
35704;BME280;21820;51.112;13.762;2023-05-18T11:33:09;100402.69;;;22.41;44.33
35704;BME280;21820;51.112;13.762;2023-05-18T11:35:54;100390.66;;;22.38;44.44
35704;BME280;21820;51.112;13.762;2023-05-18T11:38:19;100393.16;;;22.40;44.53
35704;BME280;21820;51.112;13.762;2023-05-18T11:43:20;100391.50;;;22.39;44.07
35704;BME280;21820;51.112;13.762;2023-05-18T11:45:57;100393.84;;;22.42;44.15
35704;BME280;21820;51.112;13.762;2023-05-18T11:48:26;100385.06;;;22.43;44.22
35704;BME280;21820;51.112;13.762;2023-05-18T11:50:54;100398.50;;;22.38;44.16
35704;BME280;21820;51.112;13.762;2023-05-18T11:53:23;100394.38;;;22.36;43.66
35704;BME280;21820;51.112;13.762;2023-05-18T11:55:50;100396.47;;;22.42;44.14
35704;BME280;21820;51.112;13.762;2023-05-18T11:58:16;100390.31;;;22.43;44.12
35704;BME280;21820;51.112;13.762;2023-05-18T12:00:44;100394.81;;;22.41;44.30
35704;BME280;21820;51.112;13.762;2023-05-18T12:03:10;100389.59;;;22.41;44.35
35704;BME280;21820;51.112;13.762;2023-05-18T12:05:36;100392.66;;;22.46;44.26
35704;BME280;21820;51.112;13.762;2023-05-18T12:08:02;100370.47;;;22.29;44.00
35704;BME280;21820;51.112;13.762;2023-05-18T12:10:28;100384.94;;;22.44;44.28
35704;BME280;21820;51.112;13.762;2023-05-18T12:12:53;100392.91;;;22.43;43.98
35704;BME280;21820;51.112;13.762;2023-05-18T12:15:22;100389.59;;;22.41;43.75
35704;BME280;21820;51.112;13.762;2023-05-18T12:17:48;100391.94;;;22.44;44.26
35704;BME280;21820;51.112;13.762;2023-05-18T12:20:17;100389.59;;;22.41;43.82
35704;BME280;21820;51.112;13.762;2023-05-18T12:22:44;100369.63;;;22.29;44.28
35704;BME280;21820;51.112;13.762;2023-05-18T12:25:10;100380.50;;;22.45;44.59
35704;BME280;21820;51.112;13.762;2023-05-18T12:27:36;100390.97;;;22.45;44.36
35704;BME280;21820;51.112;13.762;2023-05-18T12:30:02;100382.19;;;22.46;44.53
35704;BME280;21820;51.112;13.762;2023-05-18T12:32:28;100391.94;;;22.44;43.97
35704;BME280;21820;51.112;13.762;2023-05-18T12:34:54;100387.16;;;22.49;44.42
35704;BME280;21820;51.112;13.762;2023-05-18T12:37:22;100371.38;;;22.39;44.05
35704;BME280;21820;51.112;13.762;2023-05-18T12:39:50;100387.41;;;22.46;44.20
35704;BME280;21820;51.112;13.762;2023-05-18T12:42:16;100376.94;;;22.46;44.40
35704;BME280;21820;51.112;13.762;2023-05-18T12:44:41;100385.06;;;22.43;44.32
35704;BME280;21820;51.112;13.762;2023-05-18T12:47:10;100375.38;;;22.54;44.45
35704;BME280;21820;51.112;13.762;2023-05-18T12:49:36;100380.63;;;22.43;44.57
35704;BME280;21820;51.112;13.762;2023-05-18T12:52:12;100378.84;;;22.44;44.66
35704;BME280;21820;51.112;13.762;2023-05-18T12:54:49;100380.94;;;22.50;44.72